sensor_id;sensor_type;location;lat;lon;timestamp;P1;durP1;ratioP1;P2;durP2;ratioP2
11572;SDS011;5842;52.426;4.886;2022-07-05T00:00:17;4.10;;;3.30;;
11572;SDS011;5842;52.426;4.886;2022-07-05T00:02:45;3.47;;;3.17;;
11572;SDS011;5842;52.426;4.886;2022-07-05T00:05:12;4.10;;;3.60;;
11572;SDS011;5842;52.426;4.886;2022-07-05T00:07:39;5.60;;;3.20;;
11572;SDS011;5842;52.426;4.886;2022-07-05T00:10:09;4.10;;;3.40;;
11572;SDS011;5842;52.426;4.886;2022-07-05T00:12:37;3.97;;;3.33;;
11572;SDS011;5842;52.426;4.886;2022-07-05T00:15:04;4.70;;;3.47;;
11572;SDS011;5842;52.426;4.886;2022-07-05T00:17:34;3.60;;;3.30;;
11572;SDS011;5842;52.426;4.886;2022-07-05T00:20:05;4.50;;;3.70;;
11572;SDS011;5842;52.426;4.886;2022-07-05T00:22:35;7.07;;;3.67;;
11572;SDS011;5842;52.426;4.886;2022-07-05T00:25:07;4.10;;;3.70;;
11572;SDS011;5842;52.426;4.886;2022-07-05T00:27:36;6.83;;;4.23;;
11572;SDS011;5842;52.426;4.886;2022-07-05T00:30:04;4.80;;;4.20;;
11572;SDS011;5842;52.426;4.886;2022-07-05T00:32:37;4.30;;;3.80;;
11572;SDS011;5842;52.426;4.886;2022-07-05T00:35:07;4.53;;;3.73;;
11572;SDS011;5842;52.426;4.886;2022-07-05T00:37:38;6.67;;;4.20;;
11572;SDS011;5842;52.426;4.886;2022-07-05T00:40:06;4.93;;;4.13;;
11572;SDS011;5842;52.426;4.886;2022-07-05T00:42:35;5.07;;;4.50;;
11572;SDS011;5842;52.426;4.886;2022-07-05T00:45:02;5.63;;;4.40;;
11572;SDS011;5842;52.426;4.886;2022-07-05T00:47:30;6.67;;;4.97;;
11572;SDS011;5842;52.426;4.886;2022-07-05T00:50:05;7.17;;;4.90;;
11572;SDS011;5842;52.426;4.886;2022-07-05T00:52:34;8.47;;;4.90;;
11572;SDS011;5842;52.426;4.886;2022-07-05T00:55:01;7.00;;;4.90;;
11572;SDS011;5842;52.426;4.886;2022-07-05T00:57:34;8.27;;;5.03;;
11572;SDS011;5842;52.426;4.886;2022-07-05T01:00:02;7.23;;;4.90;;
11572;SDS011;5842;52.426;4.886;2022-07-05T01:02:35;7.63;;;4.63;;
11572;SDS011;5842;52.426;4.886;2022-07-05T01:05:05;6.10;;;4.60;;
11572;SDS011;5842;52.426;4.886;2022-07-05T01:07:36;7.77;;;5.27;;
11572;SDS011;5842;52.426;4.886;2022-07-05T01:10:04;8.47;;;5.20;;
11572;SDS011;5842;52.426;4.886;2022-07-05T01:12:34;7.27;;;5.17;;
11572;SDS011;5842;52.426;4.886;2022-07-05T01:15:04;9.13;;;5.77;;
11572;SDS011;5842;52.426;4.886;2022-07-05T01:17:32;6.67;;;5.90;;
11572;SDS011;5842;52.426;4.886;2022-07-05T01:20:02;7.13;;;5.33;;
11572;SDS011;5842;52.426;4.886;2022-07-05T01:22:33;6.77;;;5.43;;
11572;SDS011;5842;52.426;4.886;2022-07-05T01:25:18;6.30;;;5.53;;
11572;SDS011;5842;52.426;4.886;2022-07-05T01:27:46;7.27;;;5.17;;
11572;SDS011;5842;52.426;4.886;2022-07-05T01:30:15;6.77;;;5.43;;
11572;SDS011;5842;52.426;4.886;2022-07-05T01:32:43;6.87;;;5.60;;
11572;SDS011;5842;52.426;4.886;2022-07-05T01:35:18;7.87;;;5.50;;
11572;SDS011;5842;52.426;4.886;2022-07-05T01:37:50;7.00;;;5.70;;
11572;SDS011;5842;52.426;4.886;2022-07-05T01:40:18;6.67;;;5.63;;
11572;SDS011;5842;52.426;4.886;2022-07-05T01:42:46;6.20;;;5.60;;
11572;SDS011;5842;52.426;4.886;2022-07-05T01:45:14;6.60;;;5.90;;
11572;SDS011;5842;52.426;4.886;2022-07-05T01:48:04;9.00;;;5.63;;
11572;SDS011;5842;52.426;4.886;2022-07-05T01:50:36;6.10;;;5.43;;
11572;SDS011;5842;52.426;4.886;2022-07-05T01:53:10;9.77;;;5.87;;
11572;SDS011;5842;52.426;4.886;2022-07-05T01:55:42;7.33;;;5.73;;
11572;SDS011;5842;52.426;4.886;2022-07-05T01:58:11;6.27;;;5.27;;
11572;SDS011;5842;52.426;4.886;2022-07-05T02:00:42;7.03;;;5.23;;
11572;SDS011;5842;52.426;4.886;2022-07-05T02:03:11;5.53;;;4.90;;
11572;SDS011;5842;52.426;4.886;2022-07-05T02:05:42;5.50;;;4.83;;
11572;SDS011;5842;52.426;4.886;2022-07-05T02:08:14;7.53;;;5.50;;
11572;SDS011;5842;52.426;4.886;2022-07-05T02:10:45;7.70;;;5.03;;
11572;SDS011;5842;52.426;4.886;2022-07-05T02:13:15;6.47;;;5.50;;
11572;SDS011;5842;52.426;4.886;2022-07-05T02:15:43;6.47;;;5.30;;
11572;SDS011;5842;52.426;4.886;2022-07-05T02:18:12;5.40;;;4.90;;
11572;SDS011;5842;52.426;4.886;2022-07-05T02:20:39;6.27;;;4.90;;
11572;SDS011;5842;52.426;4.886;2022-07-05T02:23:08;6.00;;;4.80;;
11572;SDS011;5842;52.426;4.886;2022-07-05T02:25:37;5.43;;;4.93;;
11572;SDS011;5842;52.426;4.886;2022-07-05T02:28:07;7.10;;;5.20;;
11572;SDS011;5842;52.426;4.886;2022-07-05T02:30:38;6.07;;;4.60;;
11572;SDS011;5842;52.426;4.886;2022-07-05T02:33:06;7.33;;;4.97;;
11572;SDS011;5842;52.426;4.886;2022-07-05T02:35:33;5.17;;;4.70;;
11572;SDS011;5842;52.426;4.886;2022-07-05T02:38:00;4.87;;;4.43;;
11572;SDS011;5842;52.426;4.886;2022-07-05T02:40:28;6.27;;;4.83;;
11572;SDS011;5842;52.426;4.886;2022-07-05T02:42:59;5.63;;;4.80;;
11572;SDS011;5842;52.426;4.886;2022-07-05T02:45:26;4.63;;;4.13;;
11572;SDS011;5842;52.426;4.886;2022-07-05T02:47:53;4.80;;;4.30;;
11572;SDS011;5842;52.426;4.886;2022-07-05T02:50:20;5.10;;;4.60;;
11572;SDS011;5842;52.426;4.886;2022-07-05T02:52:50;4.83;;;4.33;;
11572;SDS011;5842;52.426;4.886;2022-07-05T02:55:18;5.97;;;4.77;;
11572;SDS011;5842;52.426;4.886;2022-07-05T02:57:45;5.50;;;4.87;;
11572;SDS011;5842;52.426;4.886;2022-07-05T03:00:14;5.43;;;4.60;;
11572;SDS011;5842;52.426;4.886;2022-07-05T03:02:43;5.67;;;4.60;;
11572;SDS011;5842;52.426;4.886;2022-07-05T03:05:10;6.77;;;4.63;;
11572;SDS011;5842;52.426;4.886;2022-07-05T03:07:38;5.73;;;4.70;;
11572;SDS011;5842;52.426;4.886;2022-07-05T03:10:05;6.57;;;4.57;;
11572;SDS011;5842;52.426;4.886;2022-07-05T03:12:33;7.50;;;4.93;;
11572;SDS011;5842;52.426;4.886;2022-07-05T03:15:00;5.67;;;4.43;;
11572;SDS011;5842;52.426;4.886;2022-07-05T03:17:29;4.60;;;4.10;;
11572;SDS011;5842;52.426;4.886;2022-07-05T03:20:00;6.47;;;4.53;;
11572;SDS011;5842;52.426;4.886;2022-07-05T03:22:27;5.90;;;4.60;;
11572;SDS011;5842;52.426;4.886;2022-07-05T03:24:54;5.60;;;4.80;;
11572;SDS011;5842;52.426;4.886;2022-07-05T03:27:22;5.93;;;4.63;;
11572;SDS011;5842;52.426;4.886;2022-07-05T03:29:49;5.07;;;4.60;;
11572;SDS011;5842;52.426;4.886;2022-07-05T03:32:16;5.43;;;4.43;;
11572;SDS011;5842;52.426;4.886;2022-07-05T03:34:46;5.87;;;4.37;;
11572;SDS011;5842;52.426;4.886;2022-07-05T03:37:13;6.33;;;4.50;;
11572;SDS011;5842;52.426;4.886;2022-07-05T03:39:42;5.83;;;5.10;;
11572;SDS011;5842;52.426;4.886;2022-07-05T03:42:10;7.87;;;5.10;;
11572;SDS011;5842;52.426;4.886;2022-07-05T03:44:37;7.67;;;5.23;;
11572;SDS011;5842;52.426;4.886;2022-07-05T03:47:04;7.33;;;5.83;;
11572;SDS011;5842;52.426;4.886;2022-07-05T03:49:31;7.07;;;6.27;;
11572;SDS011;5842;52.426;4.886;2022-07-05T03:52:00;6.03;;;5.40;;
11572;SDS011;5842;52.426;4.886;2022-07-05T03:54:28;5.83;;;5.30;;
11572;SDS011;5842;52.426;4.886;2022-07-05T03:56:55;5.73;;;5.13;;
11572;SDS011;5842;52.426;4.886;2022-07-05T03:59:23;6.10;;;5.23;;
11572;SDS011;5842;52.426;4.886;2022-07-05T04:01:51;5.80;;;5.20;;
11572;SDS011;5842;52.426;4.886;2022-07-05T04:04:18;7.17;;;5.53;;
11572;SDS011;5842;52.426;4.886;2022-07-05T04:06:45;6.17;;;5.23;;
11572;SDS011;5842;52.426;4.886;2022-07-05T04:09:17;7.80;;;5.60;;
11572;SDS011;5842;52.426;4.886;2022-07-05T04:11:44;7.27;;;5.97;;
11572;SDS011;5842;52.426;4.886;2022-07-05T04:14:11;8.33;;;5.80;;
11572;SDS011;5842;52.426;4.886;2022-07-05T04:16:43;6.70;;;6.00;;
11572;SDS011;5842;52.426;4.886;2022-07-05T04:19:13;6.10;;;5.50;;
11572;SDS011;5842;52.426;4.886;2022-07-05T04:21:44;7.10;;;5.53;;
11572;SDS011;5842;52.426;4.886;2022-07-05T04:24:13;7.63;;;5.70;;
11572;SDS011;5842;52.426;4.886;2022-07-05T04:26:48;5.73;;;5.17;;
11572;SDS011;5842;52.426;4.886;2022-07-05T04:29:15;5.83;;;4.90;;
11572;SDS011;5842;52.426;4.886;2022-07-05T04:31:42;8.07;;;5.53;;
11572;SDS011;5842;52.426;4.886;2022-07-05T04:34:10;5.97;;;5.00;;
11572;SDS011;5842;52.426;4.886;2022-07-05T04:36:37;4.80;;;4.40;;
11572;SDS011;5842;52.426;4.886;2022-07-05T04:39:06;5.63;;;4.80;;
11572;SDS011;5842;52.426;4.886;2022-07-05T04:41:34;5.73;;;4.40;;
11572;SDS011;5842;52.426;4.886;2022-07-05T04:44:04;4.37;;;3.97;;
11572;SDS011;5842;52.426;4.886;2022-07-05T04:46:32;6.23;;;4.57;;
11572;SDS011;5842;52.426;4.886;2022-07-05T04:48:59;6.73;;;4.37;;
11572;SDS011;5842;52.426;4.886;2022-07-05T04:51:27;5.73;;;4.27;;
11572;SDS011;5842;52.426;4.886;2022-07-05T04:53:57;5.20;;;4.30;;
11572;SDS011;5842;52.426;4.886;2022-07-05T04:56:24;7.43;;;4.60;;
11572;SDS011;5842;52.426;4.886;2022-07-05T04:58:53;5.20;;;4.00;;
11572;SDS011;5842;52.426;4.886;2022-07-05T05:01:22;4.77;;;4.10;;
11572;SDS011;5842;52.426;4.886;2022-07-05T05:03:52;5.17;;;4.27;;
11572;SDS011;5842;52.426;4.886;2022-07-05T05:06:26;4.40;;;3.67;;
11572;SDS011;5842;52.426;4.886;2022-07-05T05:08:57;5.13;;;4.27;;
11572;SDS011;5842;52.426;4.886;2022-07-05T05:11:26;4.43;;;3.90;;
11572;SDS011;5842;52.426;4.886;2022-07-05T05:13:55;6.73;;;3.80;;
11572;SDS011;5842;52.426;4.886;2022-07-05T05:16:25;4.17;;;2.93;;
11572;SDS011;5842;52.426;4.886;2022-07-05T05:18:52;3.97;;;2.42;;
11572;SDS011;5842;52.426;4.886;2022-07-05T05:21:24;3.75;;;2.00;;
11572;SDS011;5842;52.426;4.886;2022-07-05T05:23:53;2.55;;;1.80;;
11572;SDS011;5842;52.426;4.886;2022-07-05T05:26:27;3.70;;;1.83;;
11572;SDS011;5842;52.426;4.886;2022-07-05T05:28:57;4.50;;;1.90;;
11572;SDS011;5842;52.426;4.886;2022-07-05T05:31:36;3.00;;;1.67;;
11572;SDS011;5842;52.426;4.886;2022-07-05T05:34:05;5.32;;;2.00;;
11572;SDS011;5842;52.426;4.886;2022-07-05T05:36:33;3.10;;;1.77;;
11572;SDS011;5842;52.426;4.886;2022-07-05T05:39:10;2.40;;;1.52;;
11572;SDS011;5842;52.426;4.886;2022-07-05T05:41:39;4.18;;;1.60;;
11572;SDS011;5842;52.426;4.886;2022-07-05T06:08:52;3.05;;;1.52;;
11572;SDS011;5842;52.426;4.886;2022-07-05T06:11:19;2.75;;;1.50;;
11572;SDS011;5842;52.426;4.886;2022-07-05T06:13:47;2.47;;;1.40;;
11572;SDS011;5842;52.426;4.886;2022-07-05T06:16:17;3.90;;;1.40;;
11572;SDS011;5842;52.426;4.886;2022-07-05T06:18:53;2.20;;;1.35;;
11572;SDS011;5842;52.426;4.886;2022-07-05T06:21:28;2.80;;;1.33;;
11572;SDS011;5842;52.426;4.886;2022-07-05T06:23:59;3.30;;;1.55;;
11572;SDS011;5842;52.426;4.886;2022-07-05T06:26:34;3.20;;;1.50;;
11572;SDS011;5842;52.426;4.886;2022-07-05T06:29:05;2.95;;;1.40;;
11572;SDS011;5842;52.426;4.886;2022-07-05T06:31:32;4.40;;;1.42;;
11572;SDS011;5842;52.426;4.886;2022-07-05T06:34:02;3.88;;;1.60;;
11572;SDS011;5842;52.426;4.886;2022-07-05T06:36:31;3.03;;;1.42;;
11572;SDS011;5842;52.426;4.886;2022-07-05T06:39:02;3.65;;;1.30;;
11572;SDS011;5842;52.426;4.886;2022-07-05T06:41:34;2.00;;;1.40;;
11572;SDS011;5842;52.426;4.886;2022-07-05T06:44:01;2.55;;;1.50;;
11572;SDS011;5842;52.426;4.886;2022-07-05T06:46:32;3.60;;;1.52;;
11572;SDS011;5842;52.426;4.886;2022-07-05T06:48:59;2.40;;;1.50;;
11572;SDS011;5842;52.426;4.886;2022-07-05T06:51:26;2.90;;;1.65;;
11572;SDS011;5842;52.426;4.886;2022-07-05T06:53:55;5.18;;;1.60;;
11572;SDS011;5842;52.426;4.886;2022-07-05T06:56:22;1.75;;;1.38;;
11572;SDS011;5842;52.426;4.886;2022-07-05T06:58:51;1.95;;;1.33;;
11572;SDS011;5842;52.426;4.886;2022-07-05T10:45:48;3.63;;;1.60;;
11572;SDS011;5842;52.426;4.886;2022-07-05T10:48:17;4.88;;;1.80;;
11572;SDS011;5842;52.426;4.886;2022-07-05T10:50:46;2.33;;;1.42;;
11572;SDS011;5842;52.426;4.886;2022-07-05T10:53:15;2.42;;;1.25;;
11572;SDS011;5842;52.426;4.886;2022-07-05T10:55:48;2.78;;;1.20;;
11572;SDS011;5842;52.426;4.886;2022-07-05T10:58:21;2.40;;;1.40;;
11572;SDS011;5842;52.426;4.886;2022-07-05T11:06:58;2.95;;;1.40;;
11572;SDS011;5842;52.426;4.886;2022-07-05T11:09:26;2.85;;;1.60;;
11572;SDS011;5842;52.426;4.886;2022-07-05T11:14:44;4.55;;;1.70;;
11572;SDS011;5842;52.426;4.886;2022-07-05T11:17:13;2.38;;;1.40;;
11572;SDS011;5842;52.426;4.886;2022-07-05T11:20:04;2.85;;;1.60;;
11572;SDS011;5842;52.426;4.886;2022-07-05T11:22:37;2.53;;;1.40;;
11572;SDS011;5842;52.426;4.886;2022-07-05T11:25:06;4.03;;;1.58;;
11572;SDS011;5842;52.426;4.886;2022-07-05T11:27:37;1.58;;;1.33;;
11572;SDS011;5842;52.426;4.886;2022-07-05T11:30:44;4.22;;;1.55;;
11572;SDS011;5842;52.426;4.886;2022-07-05T11:41:34;3.33;;;1.52;;
11572;SDS011;5842;52.426;4.886;2022-07-05T11:44:15;2.42;;;1.65;;
11572;SDS011;5842;52.426;4.886;2022-07-05T11:46:45;3.72;;;1.80;;
11572;SDS011;5842;52.426;4.886;2022-07-05T11:49:19;2.85;;;1.60;;
11572;SDS011;5842;52.426;4.886;2022-07-05T11:51:52;3.97;;;1.83;;
11572;SDS011;5842;52.426;4.886;2022-07-05T11:54:22;4.30;;;1.60;;
11572;SDS011;5842;52.426;4.886;2022-07-05T11:56:49;2.00;;;1.50;;
11572;SDS011;5842;52.426;4.886;2022-07-05T11:59:19;2.30;;;1.60;;
11572;SDS011;5842;52.426;4.886;2022-07-05T12:01:46;4.18;;;1.50;;
11572;SDS011;5842;52.426;4.886;2022-07-05T12:04:20;5.20;;;1.80;;
11572;SDS011;5842;52.426;4.886;2022-07-05T12:06:48;7.03;;;1.77;;
11572;SDS011;5842;52.426;4.886;2022-07-05T12:09:21;3.63;;;1.40;;
11572;SDS011;5842;52.426;4.886;2022-07-05T12:11:49;3.95;;;1.40;;
11572;SDS011;5842;52.426;4.886;2022-07-05T12:14:35;3.97;;;1.52;;
11572;SDS011;5842;52.426;4.886;2022-07-05T12:17:12;2.22;;;1.60;;
11572;SDS011;5842;52.426;4.886;2022-07-05T12:19:40;3.50;;;1.50;;
11572;SDS011;5842;52.426;4.886;2022-07-05T12:22:07;6.50;;;2.10;;
11572;SDS011;5842;52.426;4.886;2022-07-05T12:24:35;3.65;;;1.80;;
11572;SDS011;5842;52.426;4.886;2022-07-05T12:27:02;3.58;;;1.67;;
11572;SDS011;5842;52.426;4.886;2022-07-05T12:29:38;3.28;;;1.30;;
11572;SDS011;5842;52.426;4.886;2022-07-05T12:32:09;3.95;;;1.60;;
11572;SDS011;5842;52.426;4.886;2022-07-05T12:38:07;4.57;;;1.90;;
11572;SDS011;5842;52.426;4.886;2022-07-05T12:40:42;2.08;;;1.50;;
11572;SDS011;5842;52.426;4.886;2022-07-05T12:43:16;2.92;;;1.42;;
11572;SDS011;5842;52.426;4.886;2022-07-05T12:45:58;4.25;;;1.80;;
11572;SDS011;5842;52.426;4.886;2022-07-05T12:48:32;2.45;;;1.33;;
11572;SDS011;5842;52.426;4.886;2022-07-05T12:51:02;3.55;;;1.52;;
11572;SDS011;5842;52.426;4.886;2022-07-05T12:53:29;1.95;;;1.23;;
11572;SDS011;5842;52.426;4.886;2022-07-05T12:56:14;2.92;;;1.50;;
11572;SDS011;5842;52.426;4.886;2022-07-05T12:59:00;2.92;;;1.40;;
11572;SDS011;5842;52.426;4.886;2022-07-05T13:01:32;5.00;;;1.63;;
11572;SDS011;5842;52.426;4.886;2022-07-05T13:04:03;3.42;;;1.77;;
11572;SDS011;5842;52.426;4.886;2022-07-05T13:09:56;2.40;;;1.40;;
11572;SDS011;5842;52.426;4.886;2022-07-05T13:12:40;5.70;;;1.80;;
11572;SDS011;5842;52.426;4.886;2022-07-05T13:15:08;3.63;;;1.70;;
11572;SDS011;5842;52.426;4.886;2022-07-05T13:17:37;2.30;;;1.63;;
11572;SDS011;5842;52.426;4.886;2022-07-05T13:23:30;3.63;;;1.55;;
11572;SDS011;5842;52.426;4.886;2022-07-05T13:25:57;3.05;;;1.65;;
11572;SDS011;5842;52.426;4.886;2022-07-05T13:28:24;3.15;;;1.75;;
11572;SDS011;5842;52.426;4.886;2022-07-05T13:30:51;3.45;;;1.98;;
11572;SDS011;5842;52.426;4.886;2022-07-05T13:33:20;4.78;;;1.95;;
11572;SDS011;5842;52.426;4.886;2022-07-05T13:35:47;6.03;;;2.30;;
11572;SDS011;5842;52.426;4.886;2022-07-05T13:38:14;5.47;;;2.10;;
11572;SDS011;5842;52.426;4.886;2022-07-05T13:40:41;4.70;;;2.40;;
11572;SDS011;5842;52.426;4.886;2022-07-05T13:43:08;9.18;;;2.53;;
11572;SDS011;5842;52.426;4.886;2022-07-05T13:45:35;6.18;;;2.50;;
11572;SDS011;5842;52.426;4.886;2022-07-05T13:48:03;5.57;;;2.80;;
11572;SDS011;5842;52.426;4.886;2022-07-05T13:50:32;5.63;;;2.80;;
11572;SDS011;5842;52.426;4.886;2022-07-05T13:53:00;3.60;;;2.70;;
11572;SDS011;5842;52.426;4.886;2022-07-05T13:55:28;4.53;;;2.40;;
11572;SDS011;5842;52.426;4.886;2022-07-05T13:57:55;3.50;;;2.00;;
11572;SDS011;5842;52.426;4.886;2022-07-05T14:00:23;3.57;;;2.43;;
11572;SDS011;5842;52.426;4.886;2022-07-05T14:02:51;4.30;;;2.10;;
11572;SDS011;5842;52.426;4.886;2022-07-05T14:05:18;3.17;;;2.40;;
11572;SDS011;5842;52.426;4.886;2022-07-05T14:07:47;3.97;;;2.17;;
11572;SDS011;5842;52.426;4.886;2022-07-05T14:10:14;4.70;;;2.43;;
11572;SDS011;5842;52.426;4.886;2022-07-05T14:12:42;4.43;;;2.20;;
11572;SDS011;5842;52.426;4.886;2022-07-05T14:15:09;5.30;;;2.30;;
11572;SDS011;5842;52.426;4.886;2022-07-05T14:17:36;4.17;;;2.20;;
11572;SDS011;5842;52.426;4.886;2022-07-05T14:20:05;4.73;;;2.20;;
11572;SDS011;5842;52.426;4.886;2022-07-05T14:22:33;5.23;;;2.40;;
11572;SDS011;5842;52.426;4.886;2022-07-05T14:25:01;3.20;;;2.10;;
11572;SDS011;5842;52.426;4.886;2022-07-05T14:27:33;4.47;;;2.23;;
11572;SDS011;5842;52.426;4.886;2022-07-05T14:30:02;4.00;;;2.00;;
11572;SDS011;5842;52.426;4.886;2022-07-05T14:32:29;5.03;;;1.80;;
11572;SDS011;5842;52.426;4.886;2022-07-05T14:34:56;4.37;;;1.97;;
11572;SDS011;5842;52.426;4.886;2022-07-05T14:37:23;3.37;;;2.40;;
11572;SDS011;5842;52.426;4.886;2022-07-05T14:39:50;3.70;;;2.40;;
11572;SDS011;5842;52.426;4.886;2022-07-05T14:42:19;5.83;;;2.00;;
11572;SDS011;5842;52.426;4.886;2022-07-05T14:44:46;3.10;;;1.80;;
11572;SDS011;5842;52.426;4.886;2022-07-05T14:47:13;3.23;;;1.60;;
11572;SDS011;5842;52.426;4.886;2022-07-05T14:49:40;4.90;;;1.90;;
11572;SDS011;5842;52.426;4.886;2022-07-05T14:52:07;3.37;;;1.90;;
11572;SDS011;5842;52.426;4.886;2022-07-05T14:54:34;2.73;;;1.50;;
11572;SDS011;5842;52.426;4.886;2022-07-05T14:57:01;2.70;;;1.60;;
11572;SDS011;5842;52.426;4.886;2022-07-05T14:59:30;4.10;;;1.97;;
11572;SDS011;5842;52.426;4.886;2022-07-05T15:05:20;5.30;;;1.63;;
11572;SDS011;5842;52.426;4.886;2022-07-05T15:07:47;4.70;;;1.83;;
11572;SDS011;5842;52.426;4.886;2022-07-05T15:10:14;4.93;;;1.80;;
11572;SDS011;5842;52.426;4.886;2022-07-05T15:12:41;1.93;;;1.47;;
11572;SDS011;5842;52.426;4.886;2022-07-05T15:15:10;4.17;;;1.80;;
11572;SDS011;5842;52.426;4.886;2022-07-05T15:17:38;2.40;;;1.70;;
11572;SDS011;5842;52.426;4.886;2022-07-05T15:20:05;3.87;;;1.70;;
11572;SDS011;5842;52.426;4.886;2022-07-05T15:22:36;2.17;;;1.43;;
11572;SDS011;5842;52.426;4.886;2022-07-05T15:25:03;2.53;;;1.50;;
11572;SDS011;5842;52.426;4.886;2022-07-05T15:27:31;3.13;;;1.57;;
11572;SDS011;5842;52.426;4.886;2022-07-05T15:29:58;2.97;;;1.80;;
11572;SDS011;5842;52.426;4.886;2022-07-05T15:32:27;4.07;;;1.60;;
11572;SDS011;5842;52.426;4.886;2022-07-05T15:34:54;2.93;;;1.60;;
11572;SDS011;5842;52.426;4.886;2022-07-05T15:40:43;4.30;;;1.80;;
11572;SDS011;5842;52.426;4.886;2022-07-05T15:43:10;4.63;;;1.57;;
11572;SDS011;5842;52.426;4.886;2022-07-05T15:45:37;2.87;;;1.67;;
11572;SDS011;5842;52.426;4.886;2022-07-05T15:48:06;5.00;;;1.70;;
11572;SDS011;5842;52.426;4.886;2022-07-05T15:50:33;2.90;;;1.63;;
11572;SDS011;5842;52.426;4.886;2022-07-05T15:53:01;3.70;;;2.03;;
11572;SDS011;5842;52.426;4.886;2022-07-05T15:55:28;3.30;;;1.80;;
11572;SDS011;5842;52.426;4.886;2022-07-05T15:57:55;1.83;;;1.63;;
11572;SDS011;5842;52.426;4.886;2022-07-05T16:00:23;5.07;;;1.90;;
11572;SDS011;5842;52.426;4.886;2022-07-05T16:02:50;2.80;;;1.77;;
11572;SDS011;5842;52.426;4.886;2022-07-05T16:05:19;3.60;;;2.10;;
11572;SDS011;5842;52.426;4.886;2022-07-05T16:07:48;2.80;;;1.73;;
11572;SDS011;5842;52.426;4.886;2022-07-05T16:10:15;3.17;;;1.77;;
11572;SDS011;5842;52.426;4.886;2022-07-05T16:12:42;2.47;;;1.70;;
11572;SDS011;5842;52.426;4.886;2022-07-05T16:15:10;2.20;;;1.80;;
11572;SDS011;5842;52.426;4.886;2022-07-05T16:17:57;3.63;;;1.90;;
11572;SDS011;5842;52.426;4.886;2022-07-05T16:20:26;3.20;;;1.97;;
11572;SDS011;5842;52.426;4.886;2022-07-05T16:22:53;3.63;;;1.93;;
11572;SDS011;5842;52.426;4.886;2022-07-05T16:25:20;2.77;;;1.97;;
11572;SDS011;5842;52.426;4.886;2022-07-05T16:27:47;4.07;;;1.90;;
11572;SDS011;5842;52.426;4.886;2022-07-05T16:30:15;2.00;;;1.80;;
11572;SDS011;5842;52.426;4.886;2022-07-05T16:32:42;1.70;;;1.60;;
11572;SDS011;5842;52.426;4.886;2022-07-05T16:35:09;4.40;;;1.90;;
11572;SDS011;5842;52.426;4.886;2022-07-05T16:37:38;2.67;;;1.90;;
11572;SDS011;5842;52.426;4.886;2022-07-05T16:40:06;4.03;;;2.20;;
11572;SDS011;5842;52.426;4.886;2022-07-05T16:42:34;4.43;;;2.30;;
11572;SDS011;5842;52.426;4.886;2022-07-05T16:45:01;6.63;;;4.13;;
11572;SDS011;5842;52.426;4.886;2022-07-05T16:47:32;10.50;;;5.63;;
11572;SDS011;5842;52.426;4.886;2022-07-05T16:49:59;6.87;;;2.67;;
11572;SDS011;5842;52.426;4.886;2022-07-05T16:52:26;3.60;;;2.00;;
11572;SDS011;5842;52.426;4.886;2022-07-05T16:54:55;2.60;;;1.80;;
11572;SDS011;5842;52.426;4.886;2022-07-05T16:57:22;4.30;;;2.03;;
11572;SDS011;5842;52.426;4.886;2022-07-05T16:59:49;1.60;;;1.50;;
11572;SDS011;5842;52.426;4.886;2022-07-05T17:02:17;3.57;;;1.90;;
11572;SDS011;5842;52.426;4.886;2022-07-05T17:04:44;3.70;;;1.60;;
11572;SDS011;5842;52.426;4.886;2022-07-05T17:07:11;2.73;;;1.87;;
11572;SDS011;5842;52.426;4.886;2022-07-05T17:09:41;3.13;;;1.53;;
11572;SDS011;5842;52.426;4.886;2022-07-05T17:12:10;3.53;;;1.50;;
11572;SDS011;5842;52.426;4.886;2022-07-05T17:14:37;1.73;;;1.57;;
11572;SDS011;5842;52.426;4.886;2022-07-05T17:17:04;2.77;;;1.50;;
11572;SDS011;5842;52.426;4.886;2022-07-05T17:19:31;1.97;;;1.50;;
11572;SDS011;5842;52.426;4.886;2022-07-05T17:21:59;2.63;;;1.20;;
11572;SDS011;5842;52.426;4.886;2022-07-05T17:24:26;4.40;;;1.50;;
11572;SDS011;5842;52.426;4.886;2022-07-05T17:26:53;2.27;;;1.30;;
11572;SDS011;5842;52.426;4.886;2022-07-05T17:29:22;2.30;;;1.17;;
11572;SDS011;5842;52.426;4.886;2022-07-05T17:31:50;1.30;;;1.20;;
11572;SDS011;5842;52.426;4.886;2022-07-05T17:37:39;2.17;;;1.30;;
11572;SDS011;5842;52.426;4.886;2022-07-05T17:40:09;3.50;;;1.40;;
11572;SDS011;5842;52.426;4.886;2022-07-05T17:42:37;1.53;;;1.20;;
11572;SDS011;5842;52.426;4.886;2022-07-05T17:45:09;4.50;;;1.20;;
11572;SDS011;5842;52.426;4.886;2022-07-05T17:47:44;3.17;;;1.47;;
11572;SDS011;5842;52.426;4.886;2022-07-05T17:50:17;2.17;;;1.30;;
11572;SDS011;5842;52.426;4.886;2022-07-05T17:52:51;1.50;;;1.00;;
11572;SDS011;5842;52.426;4.886;2022-07-05T17:58:40;5.23;;;1.20;;
11572;SDS011;5842;52.426;4.886;2022-07-05T18:01:12;2.40;;;1.20;;
11572;SDS011;5842;52.426;4.886;2022-07-05T18:03:42;2.20;;;1.13;;
11572;SDS011;5842;52.426;4.886;2022-07-05T18:06:10;2.10;;;1.30;;
11572;SDS011;5842;52.426;4.886;2022-07-05T18:11:59;1.10;;;1.00;;
11572;SDS011;5842;52.426;4.886;2022-07-05T18:14:27;3.40;;;1.17;;
11572;SDS011;5842;52.426;4.886;2022-07-05T18:16:55;2.23;;;1.10;;
11572;SDS011;5842;52.426;4.886;2022-07-05T18:19:23;2.63;;;1.20;;
11572;SDS011;5842;52.426;4.886;2022-07-05T18:21:50;3.37;;;1.33;;
11572;SDS011;5842;52.426;4.886;2022-07-05T18:24:17;2.93;;;1.53;;
11572;SDS011;5842;52.426;4.886;2022-07-05T18:26:45;2.33;;;1.37;;
11572;SDS011;5842;52.426;4.886;2022-07-05T18:29:12;1.30;;;1.13;;
11572;SDS011;5842;52.426;4.886;2022-07-05T18:31:39;3.90;;;1.20;;
11572;SDS011;5842;52.426;4.886;2022-07-05T18:34:07;3.57;;;1.20;;
11572;SDS011;5842;52.426;4.886;2022-07-05T18:36:36;1.93;;;1.07;;
11572;SDS011;5842;52.426;4.886;2022-07-05T18:39:03;3.03;;;1.37;;
11572;SDS011;5842;52.426;4.886;2022-07-05T18:41:31;2.83;;;1.50;;
11572;SDS011;5842;52.426;4.886;2022-07-05T18:43:58;2.33;;;1.40;;
11572;SDS011;5842;52.426;4.886;2022-07-05T18:46:26;3.17;;;1.30;;
11572;SDS011;5842;52.426;4.886;2022-07-05T18:48:54;2.43;;;1.33;;
11572;SDS011;5842;52.426;4.886;2022-07-05T18:51:23;1.73;;;1.23;;
11572;SDS011;5842;52.426;4.886;2022-07-05T18:53:50;2.50;;;1.33;;
11572;SDS011;5842;52.426;4.886;2022-07-05T18:56:17;2.27;;;1.20;;
11572;SDS011;5842;52.426;4.886;2022-07-05T18:58:44;1.77;;;1.30;;
11572;SDS011;5842;52.426;4.886;2022-07-05T19:01:11;2.73;;;1.40;;
11572;SDS011;5842;52.426;4.886;2022-07-05T19:03:38;4.60;;;1.37;;
11572;SDS011;5842;52.426;4.886;2022-07-05T19:06:06;4.80;;;1.30;;
11572;SDS011;5842;52.426;4.886;2022-07-05T19:08:52;3.07;;;1.30;;
11572;SDS011;5842;52.426;4.886;2022-07-05T19:11:36;4.13;;;1.50;;
11572;SDS011;5842;52.426;4.886;2022-07-05T19:14:20;4.13;;;1.70;;
11572;SDS011;5842;52.426;4.886;2022-07-05T19:16:47;3.10;;;1.90;;
11572;SDS011;5842;52.426;4.886;2022-07-05T19:19:14;3.10;;;1.83;;
11572;SDS011;5842;52.426;4.886;2022-07-05T19:21:41;2.43;;;1.20;;
11572;SDS011;5842;52.426;4.886;2022-07-05T19:24:10;4.23;;;1.57;;
11572;SDS011;5842;52.426;4.886;2022-07-05T19:26:37;3.50;;;1.43;;
11572;SDS011;5842;52.426;4.886;2022-07-05T19:29:07;2.47;;;1.10;;
11572;SDS011;5842;52.426;4.886;2022-07-05T19:31:34;2.80;;;1.10;;
11572;SDS011;5842;52.426;4.886;2022-07-05T19:34:01;2.57;;;1.20;;
11572;SDS011;5842;52.426;4.886;2022-07-05T19:36:28;3.23;;;1.40;;
11572;SDS011;5842;52.426;4.886;2022-07-05T19:38:55;1.33;;;1.00;;
11572;SDS011;5842;52.426;4.886;2022-07-05T19:41:24;4.67;;;1.50;;
11572;SDS011;5842;52.426;4.886;2022-07-05T19:43:51;2.67;;;1.30;;
11572;SDS011;5842;52.426;4.886;2022-07-05T19:46:19;4.43;;;1.37;;
11572;SDS011;5842;52.426;4.886;2022-07-05T19:48:47;3.67;;;1.40;;
11572;SDS011;5842;52.426;4.886;2022-07-05T19:51:14;3.13;;;1.30;;
11572;SDS011;5842;52.426;4.886;2022-07-05T19:53:41;4.93;;;1.50;;
11572;SDS011;5842;52.426;4.886;2022-07-05T19:56:09;3.13;;;1.57;;
11572;SDS011;5842;52.426;4.886;2022-07-05T19:58:39;2.60;;;1.70;;
11572;SDS011;5842;52.426;4.886;2022-07-05T20:04:28;4.40;;;1.53;;
11572;SDS011;5842;52.426;4.886;2022-07-05T20:06:55;3.03;;;1.30;;
11572;SDS011;5842;52.426;4.886;2022-07-05T20:09:22;5.60;;;1.70;;